sensor_id;sensor_type;location;lat;lon;timestamp;P1;durP1;ratioP1;P2;durP2;ratioP2
67164;SDS011;54093;50.014;19.984;2023-07-20T00:07:36;3.50;;;3.20;;
67164;SDS011;54093;50.014;19.984;2023-07-20T00:16:57;3.95;;;3.30;;
67164;SDS011;54093;50.014;19.984;2023-07-20T00:26:18;2.88;;;2.67;;
67164;SDS011;54093;50.014;19.984;2023-07-20T00:35:39;2.88;;;2.67;;
67164;SDS011;54093;50.014;19.984;2023-07-20T00:45:00;3.38;;;2.80;;
67164;SDS011;54093;50.014;19.984;2023-07-20T00:54:20;6.20;;;2.28;;
67164;SDS011;54093;50.014;19.984;2023-07-20T01:03:41;2.20;;;2.10;;
67164;SDS011;54093;50.014;19.984;2023-07-20T01:13:02;2.83;;;2.50;;
67164;SDS011;54093;50.014;19.984;2023-07-20T01:31:57;2.90;;;2.70;;
67164;SDS011;54093;50.014;19.984;2023-07-20T01:41:19;4.15;;;2.90;;
67164;SDS011;54093;50.014;19.984;2023-07-20T01:50:41;5.50;;;4.00;;
67164;SDS011;54093;50.014;19.984;2023-07-20T02:00:02;3.70;;;3.40;;
67164;SDS011;54093;50.014;19.984;2023-07-20T02:09:23;4.70;;;4.30;;
67164;SDS011;54093;50.014;19.984;2023-07-20T02:18:44;3.67;;;3.40;;
67164;SDS011;54093;50.014;19.984;2023-07-20T02:28:06;3.25;;;2.90;;
67164;SDS011;54093;50.014;19.984;2023-07-20T02:37:27;3.25;;;2.40;;
67164;SDS011;54093;50.014;19.984;2023-07-20T02:46:48;4.10;;;3.70;;
67164;SDS011;54093;50.014;19.984;2023-07-20T02:56:10;4.00;;;3.03;;
67164;SDS011;54093;50.014;19.984;2023-07-20T03:05:30;4.03;;;3.38;;
67164;SDS011;54093;50.014;19.984;2023-07-20T03:14:51;3.60;;;3.30;;
67164;SDS011;54093;50.014;19.984;2023-07-20T03:24:13;3.80;;;3.50;;
67164;SDS011;54093;50.014;19.984;2023-07-20T03:33:34;6.95;;;3.42;;
67164;SDS011;54093;50.014;19.984;2023-07-20T03:42:55;2.92;;;2.72;;
67164;SDS011;54093;50.014;19.984;2023-07-20T03:52:16;3.15;;;2.95;;
67164;SDS011;54093;50.014;19.984;2023-07-20T04:01:36;3.17;;;2.78;;
67164;SDS011;54093;50.014;19.984;2023-07-20T04:10:57;4.97;;;3.83;;
67164;SDS011;54093;50.014;19.984;2023-07-20T04:20:18;5.88;;;3.53;;
67164;SDS011;54093;50.014;19.984;2023-07-20T04:29:39;5.00;;;3.50;;
67164;SDS011;54093;50.014;19.984;2023-07-20T04:39:00;4.35;;;2.75;;
67164;SDS011;54093;50.014;19.984;2023-07-20T04:48:21;3.33;;;3.03;;
67164;SDS011;54093;50.014;19.984;2023-07-20T04:57:42;6.00;;;3.17;;
67164;SDS011;54093;50.014;19.984;2023-07-20T05:07:03;6.43;;;2.63;;
67164;SDS011;54093;50.014;19.984;2023-07-20T05:16:24;3.08;;;2.88;;
67164;SDS011;54093;50.014;19.984;2023-07-20T05:25:45;6.68;;;3.00;;
67164;SDS011;54093;50.014;19.984;2023-07-20T05:35:06;2.95;;;2.72;;
67164;SDS011;54093;50.014;19.984;2023-07-20T05:44:28;2.80;;;2.42;;
67164;SDS011;54093;50.014;19.984;2023-07-20T05:53:49;3.22;;;2.92;;
67164;SDS011;54093;50.014;19.984;2023-07-20T06:03:10;3.55;;;2.40;;
67164;SDS011;54093;50.014;19.984;2023-07-20T06:12:31;3.47;;;2.15;;
67164;SDS011;54093;50.014;19.984;2023-07-20T06:21:54;2.53;;;2.33;;
67164;SDS011;54093;50.014;19.984;2023-07-20T06:31:14;2.80;;;2.35;;
67164;SDS011;54093;50.014;19.984;2023-07-20T06:40:37;7.10;;;1.88;;
67164;SDS011;54093;50.014;19.984;2023-07-20T06:49:58;2.95;;;2.22;;
67164;SDS011;54093;50.014;19.984;2023-07-20T06:59:19;1.83;;;1.77;;
67164;SDS011;54093;50.014;19.984;2023-07-20T07:08:39;2.70;;;2.50;;
67164;SDS011;54093;50.014;19.984;2023-07-20T07:18:00;5.30;;;2.50;;
67164;SDS011;54093;50.014;19.984;2023-07-20T07:27:22;2.10;;;1.90;;
67164;SDS011;54093;50.014;19.984;2023-07-20T07:36:43;5.68;;;2.30;;
67164;SDS011;54093;50.014;19.984;2023-07-20T07:46:04;2.40;;;2.30;;
67164;SDS011;54093;50.014;19.984;2023-07-20T07:55:25;3.90;;;3.60;;
67164;SDS011;54093;50.014;19.984;2023-07-20T08:04:49;4.97;;;3.13;;
67164;SDS011;54093;50.014;19.984;2023-07-20T08:14:12;3.10;;;2.80;;
67164;SDS011;54093;50.014;19.984;2023-07-20T08:23:33;13.45;;;2.00;;
67164;SDS011;54093;50.014;19.984;2023-07-20T08:32:54;2.83;;;2.63;;
67164;SDS011;54093;50.014;19.984;2023-07-20T08:42:14;2.97;;;2.78;;
67164;SDS011;54093;50.014;19.984;2023-07-20T08:51:37;2.13;;;2.03;;
67164;SDS011;54093;50.014;19.984;2023-07-20T09:00:59;2.35;;;2.25;;
67164;SDS011;54093;50.014;19.984;2023-07-20T09:10:21;2.40;;;2.30;;
67164;SDS011;54093;50.014;19.984;2023-07-20T09:19:47;2.30;;;2.20;;
67164;SDS011;54093;50.014;19.984;2023-07-20T09:29:08;2.45;;;2.25;;
67164;SDS011;54093;50.014;19.984;2023-07-20T09:38:30;4.07;;;1.98;;
67164;SDS011;54093;50.014;19.984;2023-07-20T09:47:51;2.25;;;2.05;;
67164;SDS011;54093;50.014;19.984;2023-07-20T09:57:12;1.70;;;1.60;;
67164;SDS011;54093;50.014;19.984;2023-07-20T10:06:34;1.85;;;1.55;;
67164;SDS011;54093;50.014;19.984;2023-07-20T10:16:14;2.03;;;1.55;;
67164;SDS011;54093;50.014;19.984;2023-07-20T10:25:42;2.05;;;1.40;;
67164;SDS011;54093;50.014;19.984;2023-07-20T10:35:11;3.03;;;1.50;;
67164;SDS011;54093;50.014;19.984;2023-07-20T10:44:39;1.38;;;1.30;;
67164;SDS011;54093;50.014;19.984;2023-07-20T10:54:01;1.30;;;1.30;;
67164;SDS011;54093;50.014;19.984;2023-07-20T11:03:43;1.80;;;1.70;;
67164;SDS011;54093;50.014;19.984;2023-07-20T11:22:38;1.48;;;1.38;;
67164;SDS011;54093;50.014;19.984;2023-07-20T11:31:59;4.38;;;1.60;;
67164;SDS011;54093;50.014;19.984;2023-07-20T11:41:20;2.00;;;1.90;;
67164;SDS011;54093;50.014;19.984;2023-07-20T11:50:41;2.10;;;1.95;;
67164;SDS011;54093;50.014;19.984;2023-07-20T12:00:03;2.25;;;2.15;;
67164;SDS011;54093;50.014;19.984;2023-07-20T12:09:29;5.82;;;2.20;;
67164;SDS011;54093;50.014;19.984;2023-07-20T12:18:50;2.47;;;2.20;;
67164;SDS011;54093;50.014;19.984;2023-07-20T12:28:26;2.95;;;2.72;;
67164;SDS011;54093;50.014;19.984;2023-07-20T12:37:47;3.10;;;2.30;;
67164;SDS011;54093;50.014;19.984;2023-07-20T12:47:09;2.88;;;2.17;;
67164;SDS011;54093;50.014;19.984;2023-07-20T12:56:30;3.60;;;2.17;;
67164;SDS011;54093;50.014;19.984;2023-07-20T13:05:51;1.98;;;1.88;;
67164;SDS011;54093;50.014;19.984;2023-07-20T13:15:12;1.98;;;1.88;;
67164;SDS011;54093;50.014;19.984;2023-07-20T13:24:32;4.85;;;2.13;;
67164;SDS011;54093;50.014;19.984;2023-07-20T13:33:53;2.38;;;2.17;;
67164;SDS011;54093;50.014;19.984;2023-07-20T13:43:15;3.85;;;1.83;;
67164;SDS011;54093;50.014;19.984;2023-07-20T13:52:36;7.78;;;2.15;;
67164;SDS011;54093;50.014;19.984;2023-07-20T14:01:57;2.47;;;2.20;;
67164;SDS011;54093;50.014;19.984;2023-07-20T14:11:18;2.63;;;1.90;;
67164;SDS011;54093;50.014;19.984;2023-07-20T14:20:39;2.30;;;2.10;;
67164;SDS011;54093;50.014;19.984;2023-07-20T14:30:00;3.88;;;1.52;;
67164;SDS011;54093;50.014;19.984;2023-07-20T14:39:21;2.10;;;1.90;;
67164;SDS011;54093;50.014;19.984;2023-07-20T14:48:42;1.40;;;1.40;;
67164;SDS011;54093;50.014;19.984;2023-07-20T14:58:03;1.65;;;1.65;;
67164;SDS011;54093;50.014;19.984;2023-07-20T15:07:23;1.27;;;1.20;;
67164;SDS011;54093;50.014;19.984;2023-07-20T15:16:44;1.48;;;1.42;;
67164;SDS011;54093;50.014;19.984;2023-07-20T15:26:05;2.00;;;1.90;;
67164;SDS011;54093;50.014;19.984;2023-07-20T15:35:26;1.63;;;1.52;;
67164;SDS011;54093;50.014;19.984;2023-07-20T15:44:47;1.77;;;1.70;;
67164;SDS011;54093;50.014;19.984;2023-07-20T15:54:09;1.60;;;1.50;;
67164;SDS011;54093;50.014;19.984;2023-07-20T16:03:30;2.35;;;1.50;;
67164;SDS011;54093;50.014;19.984;2023-07-20T16:12:51;1.35;;;1.30;;
67164;SDS011;54093;50.014;19.984;2023-07-20T16:22:12;3.67;;;1.60;;
67164;SDS011;54093;50.014;19.984;2023-07-20T16:31:33;1.48;;;1.38;;
67164;SDS011;54093;50.014;19.984;2023-07-20T16:40:56;1.30;;;1.25;;
67164;SDS011;54093;50.014;19.984;2023-07-20T16:50:17;1.30;;;1.15;;
67164;SDS011;54093;50.014;19.984;2023-07-20T16:59:38;1.15;;;1.15;;
67164;SDS011;54093;50.014;19.984;2023-07-20T17:08:59;1.02;;;1.02;;
67164;SDS011;54093;50.014;19.984;2023-07-20T17:18:21;3.92;;;1.42;;
67164;SDS011;54093;50.014;19.984;2023-07-20T17:27:42;1.48;;;1.42;;
67164;SDS011;54093;50.014;19.984;2023-07-20T17:37:03;1.40;;;1.30;;
67164;SDS011;54093;50.014;19.984;2023-07-20T17:46:24;1.30;;;1.30;;
67164;SDS011;54093;50.014;19.984;2023-07-20T17:55:45;2.75;;;1.60;;
67164;SDS011;54093;50.014;19.984;2023-07-20T18:05:06;5.57;;;1.60;;
67164;SDS011;54093;50.014;19.984;2023-07-20T18:14:27;10.38;;;1.70;;
67164;SDS011;54093;50.014;19.984;2023-07-20T18:23:47;1.98;;;1.83;;
67164;SDS011;54093;50.014;19.984;2023-07-20T18:33:09;1.88;;;1.77;;
67164;SDS011;54093;50.014;19.984;2023-07-20T18:42:30;2.53;;;2.05;;
67164;SDS011;54093;50.014;19.984;2023-07-20T18:51:53;1.92;;;1.83;;
67164;SDS011;54093;50.014;19.984;2023-07-20T19:01:14;3.75;;;2.05;;
67164;SDS011;54093;50.014;19.984;2023-07-20T19:10:36;1.90;;;1.80;;
67164;SDS011;54093;50.014;19.984;2023-07-20T19:19:57;5.30;;;1.90;;
67164;SDS011;54093;50.014;19.984;2023-07-20T19:29:18;2.53;;;1.80;;
67164;SDS011;54093;50.014;19.984;2023-07-20T19:38:39;2.08;;;1.98;;
67164;SDS011;54093;50.014;19.984;2023-07-20T19:48:00;2.10;;;2.00;;
67164;SDS011;54093;50.014;19.984;2023-07-20T19:57:26;2.67;;;2.20;;
67164;SDS011;54093;50.014;19.984;2023-07-20T20:06:47;2.13;;;2.03;;
67164;SDS011;54093;50.014;19.984;2023-07-20T20:16:09;1.92;;;1.83;;
67164;SDS011;54093;50.014;19.984;2023-07-20T20:25:29;2.42;;;2.33;;
67164;SDS011;54093;50.014;19.984;2023-07-20T20:34:50;2.58;;;2.00;;
67164;SDS011;54093;50.014;19.984;2023-07-20T20:44:11;2.33;;;2.22;;
67164;SDS011;54093;50.014;19.984;2023-07-20T20:53:35;2.45;;;2.33;;
67164;SDS011;54093;50.014;19.984;2023-07-20T21:02:56;3.25;;;2.58;;
67164;SDS011;54093;50.014;19.984;2023-07-20T21:12:17;3.25;;;2.47;;
67164;SDS011;54093;50.014;19.984;2023-07-20T21:21:38;4.13;;;2.42;;
67164;SDS011;54093;50.014;19.984;2023-07-20T21:30:59;2.35;;;2.20;;
67164;SDS011;54093;50.014;19.984;2023-07-20T21:40:24;2.60;;;2.40;;
67164;SDS011;54093;50.014;19.984;2023-07-20T21:49:45;2.28;;;2.17;;
67164;SDS011;54093;50.014;19.984;2023-07-20T21:59:06;3.53;;;1.90;;
67164;SDS011;54093;50.014;19.984;2023-07-20T22:08:27;1.60;;;1.50;;
67164;SDS011;54093;50.014;19.984;2023-07-20T22:17:48;2.03;;;1.92;;
67164;SDS011;54093;50.014;19.984;2023-07-20T22:27:08;3.70;;;1.80;;
67164;SDS011;54093;50.014;19.984;2023-07-20T22:36:29;3.80;;;1.88;;
67164;SDS011;54093;50.014;19.984;2023-07-20T22:45:53;2.65;;;1.98;;
67164;SDS011;54093;50.014;19.984;2023-07-20T22:55:15;3.60;;;1.70;;
67164;SDS011;54093;50.014;19.984;2023-07-20T23:04:36;5.22;;;1.77;;
67164;SDS011;54093;50.014;19.984;2023-07-20T23:13:57;2.63;;;1.58;;
67164;SDS011;54093;50.014;19.984;2023-07-20T23:23:18;2.20;;;1.63;;
67164;SDS011;54093;50.014;19.984;2023-07-20T23:32:39;1.90;;;1.80;;
67164;SDS011;54093;50.014;19.984;2023-07-20T23:42:00;2.72;;;2.53;;
67164;SDS011;54093;50.014;19.984;2023-07-20T23:51:22;2.20;;;2.08;;
